Time;durP1;ratioP1;P1;durP2;ratioP2;P2;SDS_P1;SDS_P2;PMS_P1;PMS_P2;Temp;Humidity;BMP_temperature;BMP_pressure;BME280_temperature;BME280_humidity;BME280_pressure;Samples;Min_cycle;Max_cycle;Signal;HPM_P1;HPM_P2
2021/11/19 00:00:50;;;;;;;10.20;4.57;;;1.60;99.90;0.70;97842.00;;;;5047448;28;20431;-74
2021/11/19 00:03:39;;;;;;;5.23;3.77;;;1.50;99.90;1.00;97846.00;;;;5046678;28;20803;-75
2021/11/19 00:06:29;;;;;;;10.63;5.20;;;1.50;99.90;1.10;97836.00;;;;5044222;28;20439;-75
2021/11/19 00:09:18;;;;;;;9.17;5.40;;;1.40;99.90;1.30;97839.00;;;;5036282;28;20428;-74
2021/11/19 00:12:08;;;;;;;8.03;5.23;;;1.60;99.90;1.40;97843.00;;;;5033641;28;20482;-74
2021/11/19 00:14:57;;;;;;;7.93;5.60;;;1.60;99.90;1.50;97844.00;;;;5048415;28;21927;-75
2021/11/19 00:17:48;;;;;;;7.97;5.30;;;1.70;99.90;1.50;97844.00;;;;5047411;28;20957;-75
2021/11/19 00:20:36;;;;;;;6.50;4.93;;;1.80;99.90;1.60;97837.00;;;;5045963;28;21355;-75
2021/11/19 00:23:26;;;;;;;8.83;5.30;;;1.80;99.90;1.80;97830.00;;;;5047233;28;20443;-75
2021/11/19 00:26:16;;;;;;;8.03;5.47;;;1.90;99.90;1.80;97825.00;;;;5046622;28;20431;-75
2021/11/19 00:29:06;;;;;;;8.07;4.67;;;1.90;99.90;1.50;97821.00;;;;5046142;28;20978;-75
2021/11/19 00:31:55;;;;;;;7.13;5.37;;;2.00;99.90;1.50;97812.00;;;;5036795;28;21300;-75
2021/11/19 00:34:48;;;;;;;7.13;4.67;;;2.00;99.90;1.80;97820.00;;;;5047607;28;20437;-74
2021/11/19 00:37:37;;;;;;;7.80;5.20;;;2.00;99.90;1.70;97822.00;;;;5047137;28;20794;-74
2021/11/19 00:40:31;;;;;;;10.50;5.53;;;2.00;99.90;1.50;97811.00;;;;5047640;28;20423;-74
2021/11/19 00:43:21;;;;;;;7.83;6.10;;;2.00;99.90;1.50;97811.00;;;;5037301;28;20435;-76
2021/11/19 00:46:11;;;;;;;6.50;4.37;;;2.00;99.90;1.70;97808.00;;;;5042914;28;20424;-75
2021/11/19 00:49:00;;;;;;;10.00;5.93;;;2.00;99.90;1.60;97806.00;;;;5046622;28;20434;-76
2021/11/19 00:51:55;;;;;;;9.03;4.87;;;2.10;99.90;1.50;97801.00;;;;5045691;28;20998;-75
2021/11/19 00:54:45;;;;;;;7.60;4.93;;;2.70;99.90;1.70;97798.00;;;;5044660;28;20492;-76
2021/11/19 00:57:34;;;;;;;7.23;5.07;;;2.10;99.90;1.70;97788.00;;;;5045646;28;20450;-75
2021/11/19 01:00:29;;;;;;;6.37;4.80;;;2.10;99.90;1.50;97791.00;;;;5045746;28;20457;-75
2021/11/19 01:03:21;;;;;;;7.07;5.43;;;2.10;99.90;1.40;97794.00;;;;5045607;28;20431;-75
2021/11/19 01:06:10;;;;;;;8.13;4.70;;;2.10;99.90;1.50;97784.00;;;;5036639;28;20416;-75
2021/11/19 01:09:03;;;;;;;8.27;5.57;;;2.00;99.90;1.60;97787.00;;;;5045721;28;20527;-75
2021/11/19 01:11:53;;;;;;;5.80;3.77;;;2.10;99.90;1.70;97794.00;;;;5045613;28;20700;-75
2021/11/19 01:14:48;;;;;;;7.20;4.30;;;2.10;99.90;1.80;97787.00;;;;5047206;28;20428;-75
2021/11/19 01:17:43;;;;;;;7.30;5.13;;;2.10;99.90;1.60;97791.00;;;;5045773;28;21012;-73
2021/11/19 01:20:39;;;;;;;8.37;5.23;;;2.20;99.90;1.90;97790.00;;;;5035028;28;20434;-75
2021/11/19 01:23:30;;;;;;;8.77;4.77;;;2.20;99.90;2.00;97795.00;;;;5044063;28;20424;-75
2021/11/19 01:26:27;;;;;;;6.97;4.50;;;2.30;99.90;2.10;97799.00;;;;5045127;28;20942;-76
2021/11/19 01:29:19;;;;;;;7.00;4.90;;;2.40;99.90;2.00;97794.00;;;;5044563;28;20424;-74
2021/11/19 01:32:14;;;;;;;6.70;4.70;;;2.60;99.90;1.80;97795.00;;;;5044051;28;20467;-75
2021/11/19 01:35:04;;;;;;;6.77;4.50;;;2.40;99.90;1.80;97797.00;;;;5025245;28;20424;-75
2021/11/19 01:37:53;;;;;;;8.73;4.97;;;2.40;99.90;1.80;97806.00;;;;5044326;28;20431;-76
2021/11/19 01:40:50;;;;;;;8.47;5.40;;;2.40;99.90;1.70;97802.00;;;;5045462;28;20942;-75
2021/11/19 01:43:41;;;;;;;8.67;5.20;;;2.40;99.90;1.90;97772.00;;;;5044421;28;20424;-74
2021/11/19 01:46:33;;;;;;;7.57;4.93;;;2.40;99.90;2.00;97777.00;;;;5034728;28;20512;-74
2021/11/19 01:49:24;;;;;;;6.80;5.67;;;2.40;99.90;2.20;97781.00;;;;5044426;28;20434;-75
2021/11/19 01:52:17;;;;;;;7.57;4.90;;;2.40;99.90;2.30;97776.00;;;;5044824;28;20825;-73
2021/11/19 01:55:15;;;;;;;8.67;5.27;;;2.50;99.90;2.30;97759.00;;;;5043600;28;20441;-74
2021/11/19 01:58:12;;;;;;;7.70;5.13;;;2.50;99.90;2.40;97766.00;;;;5034512;28;20510;-75
2021/11/19 02:01:08;;;;;;;8.80;5.50;;;2.60;99.90;2.40;97759.00;;;;5044223;28;20458;-74
2021/11/19 02:04:02;;;;;;;7.73;5.53;;;2.60;99.90;2.40;97751.00;;;;5044199;28;20431;-75
2021/11/19 02:06:58;;;;;;;7.47;4.83;;;2.60;99.90;2.50;97750.00;;;;5031152;28;20923;-74
2021/11/19 02:09:57;;;;;;;7.10;4.87;;;2.70;99.90;2.60;97754.00;;;;5044929;28;20427;-74
2021/11/19 02:12:55;;;;;;;6.80;4.30;;;2.70;99.90;2.60;97758.00;;;;5045107;28;21005;-75
2021/11/19 02:15:49;;;;;;;7.07;3.73;;;2.80;99.90;2.60;97757.00;;;;5031873;28;20931;-75
2021/11/19 02:18:44;;;;;;;6.03;3.97;;;2.80;99.90;2.60;97751.00;;;;5048067;28;20428;-75
2021/11/19 02:21:38;;;;;;;8.33;4.20;;;2.80;99.90;2.40;97748.00;;;;5047822;28;20459;-74
2021/11/19 02:24:31;;;;;;;6.10;4.60;;;2.80;99.90;2.30;97751.00;;;;5048195;28;20431;-75
2021/11/19 02:27:24;;;;;;;8.37;5.43;;;2.80;99.90;2.20;97751.00;;;;5048129;28;20426;-74
2021/11/19 02:30:18;;;;;;;9.00;4.40;;;2.70;99.90;2.10;97739.00;;;;5035912;28;20427;-75
2021/11/19 02:33:10;;;;;;;6.73;4.50;;;2.70;99.90;1.90;97735.00;;;;5048027;28;20485;-75
2021/11/19 02:36:05;;;;;;;8.83;4.73;;;2.60;99.90;2.00;97730.00;;;;5043452;28;20439;-75
2021/11/19 02:39:00;;;;;;;8.17;4.90;;;2.60;99.90;2.00;97725.00;;;;5043270;28;20434;-75
2021/11/19 02:41:55;;;;;;;10.57;5.70;;;2.50;99.90;2.20;97732.00;;;;5047161;28;20447;-75
2021/11/19 02:44:46;;;;;;;8.57;5.37;;;2.50;99.90;2.20;97723.00;;;;5049190;28;20435;-75
2021/11/19 02:47:34;;;;;;;8.87;5.53;;;2.50;99.90;2.20;97726.00;;;;5034281;28;20428;-74
2021/11/19 02:50:24;;;;;;;10.73;5.53;;;2.50;99.90;2.20;97725.00;;;;5048583;28;20423;-75
2021/11/19 02:53:16;;;;;;;6.73;4.60;;;2.50;99.90;2.30;97731.00;;;;5047237;28;20470;-74
2021/11/19 02:56:06;;;;;;;7.07;4.20;;;2.50;99.90;2.30;97722.00;;;;5047781;28;20792;-75
2021/11/19 02:59:00;;;;;;;8.40;5.03;;;2.60;99.90;2.20;97722.00;;;;5047591;28;20422;-75
2021/11/19 03:01:55;;;;;;;6.40;4.43;;;2.60;99.90;2.30;97715.00;;;;5048365;28;20451;-75
2021/11/19 03:04:49;;;;;;;8.90;4.03;;;2.60;99.90;2.20;97700.00;;;;5047463;28;20478;-75
2021/11/19 03:07:39;;;;;;;8.87;4.33;;;2.60;99.90;2.00;97706.00;;;;5039174;28;21221;-75
2021/11/19 03:10:34;;;;;;;7.93;4.43;;;2.60;99.90;2.00;97720.00;;;;5046914;28;20427;-74
2021/11/19 03:13:27;;;;;;;7.27;4.63;;;2.50;99.90;2.20;97715.00;;;;5046971;28;20473;-74
2021/11/19 03:16:16;;;;;;;7.23;4.90;;;2.50;99.90;2.20;97719.00;;;;5047842;28;20428;-75
2021/11/19 03:19:08;;;;;;;5.67;3.83;;;2.50;99.90;2.10;97713.00;;;;5047080;28;20423;-75
2021/11/19 03:21:57;;;;;;;6.50;4.43;;;2.50;99.90;2.00;97714.00;;;;5036586;28;20976;-75
2021/11/19 03:24:46;;;;;;;7.03;4.40;;;2.50;99.90;1.90;97708.00;;;;5048067;28;20462;-75
2021/11/19 03:27:37;;;;;;;6.63;4.17;;;2.50;99.90;1.80;97709.00;;;;5047519;28;20426;-75
2021/11/19 03:30:29;;;;;;;6.90;4.33;;;2.40;99.90;1.90;97711.00;;;;5046797;28;20969;-74
2021/11/19 03:33:24;;;;;;;7.80;4.67;;;2.40;99.90;1.90;97690.00;;;;5045844;28;20451;-75
2021/11/19 03:36:15;;;;;;;6.83;4.73;;;2.40;99.90;2.00;97693.00;;;;5041505;28;20436;-74
2021/11/19 03:39:06;;;;;;;6.53;5.40;;;2.40;99.90;2.00;97705.00;;;;5043817;28;20419;-75
2021/11/19 03:41:58;;;;;;;8.43;4.93;;;2.40;99.90;2.00;97703.00;;;;5047123;28;20447;-76
2021/11/19 03:44:59;;;;;;;7.77;4.13;;;2.40;99.90;2.10;97704.00;;;;5046138;28;20503;-75
2021/11/19 03:47:51;;;;;;;9.20;4.10;;;2.50;99.90;2.30;97713.00;;;;5036166;28;20424;-75
2021/11/19 03:50:45;;;;;;;5.60;4.80;;;2.50;99.90;2.30;97718.00;;;;5046644;28;20427;-75
2021/11/19 03:53:34;;;;;;;7.20;5.23;;;2.60;99.90;2.30;97708.00;;;;5046493;28;20468;-75
2021/11/19 03:56:24;;;;;;;5.33;4.30;;;2.60;99.90;2.30;97723.00;;;;5046472;28;20428;-75
2021/11/19 03:59:15;;;;;;;7.93;4.50;;;2.60;99.90;2.00;97700.00;;;;5046260;28;20412;-75
2021/11/19 04:02:07;;;;;;;6.97;4.63;;;2.60;99.90;2.10;97701.00;;;;5046116;28;20455;-75
2021/11/19 04:04:56;;;;;;;10.47;5.63;;;2.60;99.90;2.00;97699.00;;;;5045685;28;20518;-75
2021/11/19 04:07:45;;;;;;;7.60;4.80;;;2.60;99.90;2.00;97687.00;;;;5037893;28;20419;-75
2021/11/19 04:10:35;;;;;;;7.37;5.10;;;2.50;99.90;2.20;97699.00;;;;5046725;28;20438;-75
2021/11/19 04:13:24;;;;;;;8.37;4.83;;;2.50;99.90;2.20;97691.00;;;;5047123;28;20471;-76
2021/11/19 04:16:16;;;;;;;7.70;4.40;;;2.50;99.90;2.20;97698.00;;;;5039437;28;20420;-75
2021/11/19 04:19:09;;;;;;;11.23;4.77;;;2.50;99.90;2.20;97698.00;;;;5045505;28;20462;-75
2021/11/19 04:22:03;;;;;;;9.03;4.33;;;2.60;99.90;2.00;97706.00;;;;5035629;28;20447;-74
2021/11/19 04:24:59;;;;;;;8.93;4.87;;;2.50;99.90;1.90;97697.00;;;;5046363;28;20436;-75
2021/11/19 04:27:48;;;;;;;6.00;4.97;;;2.50;99.90;1.80;97702.00;;;;5045606;28;20434;-75
2021/11/19 04:30:42;;;;;;;7.50;5.03;;;2.40;99.90;1.80;97696.00;;;;5046218;28;20420;-74
2021/11/19 04:33:31;;;;;;;5.43;4.27;;;2.40;99.90;1.80;97696.00;;;;5035646;28;21004;-75
2021/11/19 04:36:22;;;;;;;6.73;4.90;;;2.30;99.90;1.90;97692.00;;;;5039450;28;20432;-75
2021/11/19 04:39:12;;;;;;;7.50;3.80;;;2.30;99.90;1.90;97702.00;;;;5043554;28;20494;-74
2021/11/19 04:42:02;;;;;;;5.17;3.60;;;2.40;99.90;2.10;97703.00;;;;5045073;28;20435;-73
2021/11/19 04:44:52;;;;;;;8.57;4.60;;;2.40;99.90;2.20;97700.00;;;;5046272;28;20942;-74
2021/11/19 04:47:40;;;;;;;7.27;4.33;;;2.50;99.90;2.10;97685.00;;;;5046093;28;20425;-74
2021/11/19 04:50:33;;;;;;;9.10;4.13;;;2.50;99.90;1.70;97695.00;;;;5045845;28;20435;-74
2021/11/19 04:53:26;;;;;;;5.60;4.20;;;2.40;99.90;1.60;97697.00;;;;5045000;28;20419;-73
2021/11/19 04:56:16;;;;;;;10.10;5.07;;;2.30;99.90;1.80;97693.00;;;;5044781;28;20808;-74
2021/11/19 04:59:07;;;;;;;7.80;4.13;;;2.30;99.90;1.80;97698.00;;;;5040669;28;20800;-74
2021/11/19 05:02:03;;;;;;;6.37;4.30;;;2.30;99.90;1.70;97700.00;;;;5043616;28;20476;-73
2021/11/19 05:04:52;;;;;;;6.97;4.20;;;2.20;99.90;1.40;97695.00;;;;5044485;28;20843;-74
2021/11/19 05:07:41;;;;;;;6.20;4.33;;;2.20;99.90;1.20;97688.00;;;;5036905;28;20428;-74
2021/11/19 05:10:32;;;;;;;6.67;4.70;;;2.10;99.90;1.10;97691.00;;;;5036614;28;20436;-74
2021/11/19 05:13:21;;;;;;;5.60;4.03;;;2.00;99.90;1.40;97692.00;;;;5042426;28;20423;-72
2021/11/19 05:16:15;;;;;;;5.70;4.27;;;2.00;99.90;1.50;97704.00;;;;5034634;28;20428;-72
2021/11/19 05:19:05;;;;;;;8.47;4.53;;;1.90;99.90;1.60;97705.00;;;;5036867;28;20425;-72
2021/11/19 05:21:54;;;;;;;5.67;4.43;;;2.00;99.90;1.70;97700.00;;;;5043569;28;20463;-72
2021/11/19 05:24:44;;;;;;;8.47;4.37;;;2.00;99.90;1.80;97697.00;;;;5044358;28;20435;-72
2021/11/19 05:27:34;;;;;;;7.13;4.13;;;2.00;99.90;1.60;97702.00;;;;5043570;28;20430;-71
2021/11/19 05:30:23;;;;;;;7.20;4.77;;;2.00;99.90;1.70;97703.00;;;;5027917;28;20441;-72
2021/11/19 05:33:16;;;;;;;7.70;5.47;;;2.00;99.90;1.60;97697.00;;;;5030379;28;20424;-73
2021/11/19 05:36:06;;;;;;;9.60;5.50;;;1.90;99.90;1.50;97693.00;;;;5033624;28;20424;-71
2021/11/19 05:38:55;;;;;;;9.43;6.57;;;2.00;99.90;1.60;97701.00;;;;5033440;28;20416;-72
2021/11/19 05:41:44;;;;;;;11.40;5.53;;;2.00;99.90;1.70;97703.00;;;;5046549;28;20455;-73
2021/11/19 05:44:38;;;;;;;10.07;5.10;;;2.00;99.90;1.60;97704.00;;;;5045992;28;20427;-73
2021/11/19 05:47:28;;;;;;;8.57;5.70;;;2.00;99.90;1.60;97696.00;;;;5044211;28;20412;-74
2021/11/19 05:50:20;;;;;;;8.90;5.70;;;2.10;99.90;1.50;97702.00;;;;5045331;28;20510;-74
2021/11/19 05:53:10;;;;;;;9.83;5.67;;;2.00;99.90;1.50;97692.00;;;;5029897;28;20424;-74
2021/11/19 05:55:59;;;;;;;7.00;5.53;;;2.00;99.90;1.40;97704.00;;;;5035649;28;20459;-75
2021/11/19 05:58:48;;;;;;;8.37;4.73;;;2.00;99.90;1.40;97714.00;;;;5045653;28;20427;-74
2021/11/19 06:01:39;;;;;;;7.90;5.17;;;1.90;99.90;1.60;97716.00;;;;5044448;28;20440;-73
2021/11/19 06:04:28;;;;;;;8.83;5.50;;;1.90;99.90;1.60;97719.00;;;;5036990;28;20431;-71
2021/11/19 06:07:18;;;;;;;7.20;4.67;;;2.00;99.90;1.60;97713.00;;;;5030332;28;20428;-73
2021/11/19 06:10:10;;;;;;;8.77;5.63;;;1.90;99.90;1.40;97712.00;;;;5032621;28;20462;-73
2021/11/19 06:13:13;;;;;;;6.87;4.87;;;1.90;99.90;1.50;97721.00;;;;5036448;28;20434;-75
2021/11/19 06:16:06;;;;;;;8.23;4.70;;;1.90;99.90;1.60;97733.00;;;;5044086;28;20466;-75
2021/11/19 06:19:00;;;;;;;6.57;5.13;;;2.00;99.90;1.60;97718.00;;;;5044695;28;20428;-74
2021/11/19 06:21:54;;;;;;;8.30;5.00;;;2.00;99.90;1.70;97718.00;;;;5045257;28;20440;-74
2021/11/19 06:24:47;;;;;;;6.80;4.40;;;2.00;99.90;1.80;97713.00;;;;5044146;28;20938;-74
2021/11/19 06:27:37;;;;;;;6.33;4.50;;;2.10;99.90;1.70;97711.00;;;;5044529;28;20427;-74
2021/11/19 06:30:25;;;;;;;8.77;5.40;;;2.00;99.90;1.60;97717.00;;;;5035439;28;20432;-75
2021/11/19 06:33:15;;;;;;;15.70;8.30;;;2.10;99.90;1.80;97716.00;;;;5038642;28;20434;-72
2021/11/19 06:36:06;;;;;;;13.60;7.37;;;2.10;99.90;2.00;97717.00;;;;5038421;28;20467;-76
2021/11/19 06:38:57;;;;;;;19.03;10.60;;;2.20;99.90;2.10;97714.00;;;;5036423;28;20804;-74
2021/11/19 06:41:47;;;;;;;13.33;7.93;;;2.30;99.90;2.20;97710.00;;;;5044898;28;20451;-73
2021/11/19 06:44:36;;;;;;;9.67;7.03;;;2.30;99.90;2.20;97716.00;;;;5039657;28;20423;-75
2021/11/19 06:47:24;;;;;;;12.27;7.80;;;2.40;99.90;2.00;97723.00;;;;5044200;28;20427;-74
2021/11/19 06:50:17;;;;;;;10.90;6.87;;;2.40;99.90;1.90;97727.00;;;;5042792;28;20423;-74
2021/11/19 06:53:08;;;;;;;9.93;5.80;;;2.30;99.90;2.30;97719.00;;;;5043925;28;20434;-73
2021/11/19 06:55:57;;;;;;;8.80;6.23;;;2.40;99.90;2.10;97715.00;;;;5042743;28;20462;-75
2021/11/19 06:58:46;;;;;;;7.00;4.53;;;2.40;99.90;2.20;97701.00;;;;5045536;28;20427;-72
2021/11/19 07:01:35;;;;;;;6.17;4.67;;;2.50;99.90;1.80;97717.00;;;;5044017;28;20447;-75
2021/11/19 07:04:24;;;;;;;7.47;4.90;;;2.50;99.90;1.70;97714.00;;;;5043735;28;21022;-74
2021/11/19 07:07:14;;;;;;;6.27;4.03;;;2.40;99.90;1.80;97713.00;;;;5045824;28;20427;-75
2021/11/19 07:10:07;;;;;;;8.10;4.63;;;2.30;99.90;1.90;97705.00;;;;5048869;28;20798;-76
2021/11/19 07:12:56;;;;;;;6.50;4.23;;;2.30;99.90;2.00;97712.00;;;;5047005;28;20439;-74
2021/11/19 07:15:46;;;;;;;5.23;3.87;;;2.40;99.90;2.10;97718.00;;;;5048061;28;20829;-76
2021/11/19 07:18:35;;;;;;;7.17;4.90;;;2.40;99.90;2.30;97714.00;;;;5047935;28;20439;-76
2021/11/19 07:21:26;;;;;;;7.03;5.03;;;2.40;99.90;2.30;97713.00;;;;5048385;28;20443;-76
2021/11/19 07:24:15;;;;;;;5.80;4.77;;;2.50;99.90;2.40;97714.00;;;;5047344;28;20434;-76
2021/11/19 07:27:06;;;;;;;7.77;5.40;;;2.60;99.90;2.50;97723.00;;;;5047028;28;20431;-76
2021/11/19 07:29:55;;;;;;;7.13;4.50;;;2.70;99.90;2.60;97717.00;;;;5048968;28;20809;-75
2021/11/19 07:32:44;;;;;;;8.63;5.37;;;2.70;99.90;2.70;97710.00;;;;5047369;28;20767;-77
2021/11/19 07:35:35;;;;;;;8.80;5.27;;;2.80;99.90;2.80;97715.00;;;;5046685;28;20474;-76
2021/11/19 07:38:26;;;;;;;6.97;4.73;;;2.90;99.90;2.80;97710.00;;;;5039654;28;20420;-76
2021/11/19 07:41:18;;;;;;;6.23;4.27;;;2.90;99.90;2.40;97719.00;;;;5047417;28;20444;-73
2021/11/19 07:44:09;;;;;;;10.33;5.17;;;2.90;99.90;2.70;97718.00;;;;5047435;28;20424;-74
2021/11/19 07:46:58;;;;;;;14.90;4.47;;;2.90;99.90;2.60;97717.00;;;;5047197;28;20428;-74
2021/11/19 07:49:47;;;;;;;11.10;5.23;;;3.00;99.90;2.90;97725.00;;;;5047151;28;20462;-74
2021/11/19 07:52:36;;;;;;;5.20;4.20;;;3.10;99.90;3.00;97721.00;;;;5047507;28;20446;-76
2021/11/19 07:55:26;;;;;;;7.93;5.20;;;3.10;99.90;3.20;97718.00;;;;5046954;28;20471;-75
2021/11/19 07:58:15;;;;;;;7.77;5.50;;;3.30;99.90;3.10;97711.00;;;;5047301;28;20470;-74
2021/11/19 08:01:07;;;;;;;8.33;5.10;;;3.30;99.90;3.30;97720.00;;;;5046975;28;20443;-76
2021/11/19 08:03:57;;;;;;;6.77;4.90;;;3.50;99.90;3.10;97727.00;;;;5046340;28;20702;-75
2021/11/19 08:06:46;;;;;;;6.30;4.50;;;3.50;99.90;3.20;97717.00;;;;5037289;28;20823;-74
2021/11/19 08:09:37;;;;;;;4.47;3.60;;;3.50;99.90;3.30;97739.00;;;;5041544;28;20428;-73
2021/11/19 08:12:29;;;;;;;7.43;4.23;;;3.50;99.90;3.40;97725.00;;;;5041599;28;20217;-72
2021/11/19 08:15:22;;;;;;;8.97;3.70;;;3.60;99.90;3.10;97716.00;;;;5034922;28;20473;-73
2021/11/19 08:18:17;;;;;;;6.93;4.83;;;3.60;99.90;3.20;97717.00;;;;5047822;28;20208;-72
2021/11/19 08:21:07;;;;;;;7.73;5.27;;;3.60;99.90;3.30;97708.00;;;;5045904;28;20440;-73
2021/11/19 08:24:00;;;;;;;5.97;3.70;;;3.60;99.90;3.60;97723.00;;;;5047136;28;20424;-73
2021/11/19 08:26:53;;;;;;;5.37;3.50;;;3.70;99.90;3.60;97723.00;;;;5046410;28;20205;-72
2021/11/19 08:29:45;;;;;;;4.50;3.50;;;3.90;99.90;4.00;97727.00;;;;5047366;28;20420;-72
2021/11/19 08:32:34;;;;;;;6.33;3.60;;;4.00;99.90;4.00;97727.00;;;;5046751;28;20240;-73
2021/11/19 08:35:25;;;;;;;4.07;3.37;;;4.10;99.90;3.80;97732.00;;;;5045608;28;20466;-72
2021/11/19 08:38:16;;;;;;;5.00;3.20;;;4.20;99.90;4.20;97723.00;;;;5036578;28;20208;-73
2021/11/19 08:41:05;;;;;;;4.13;3.40;;;4.30;99.90;4.70;97741.00;;;;5046166;28;20235;-74
2021/11/19 08:43:59;;;;;;;4.23;3.10;;;4.50;99.90;5.00;97735.00;;;;5047111;28;20200;-72
2021/11/19 08:46:50;;;;;;;4.93;3.03;;;4.70;99.90;5.20;97728.00;;;;5041782;28;20431;-74
2021/11/19 08:49:40;;;;;;;5.20;3.57;;;4.90;99.90;5.10;97725.00;;;;5036198;28;20212;-73
2021/11/19 08:52:32;;;;;;;5.17;3.80;;;5.10;99.90;4.80;97715.00;;;;5032885;28;20217;-74
2021/11/19 08:55:20;;;;;;;5.43;4.20;;;5.10;99.90;4.70;97713.00;;;;5035528;28;20369;-74
2021/11/19 08:58:09;;;;;;;5.73;4.50;;;5.10;99.90;5.00;97718.00;;;;5034022;28;20231;-71
2021/11/19 09:01:05;;;;;;;5.13;3.30;;;5.10;99.90;5.10;97703.00;;;;5042850;28;20221;-74
2021/11/19 09:03:54;;;;;;;4.90;3.37;;;5.20;99.90;5.20;97713.00;;;;5041504;28;20674;-74
2021/11/19 09:06:43;;;;;;;2.80;2.23;;;5.30;99.90;5.40;97702.00;;;;5034975;28;20213;-75
2021/11/19 09:09:35;;;;;;;4.23;3.03;;;5.40;99.90;5.70;97698.00;;;;5046224;28;20212;-74
2021/11/19 09:12:23;;;;;;;4.20;2.70;;;5.60;99.90;5.80;97686.00;;;;5034572;28;20216;-77
2021/11/19 09:15:17;;;;;;;3.60;3.00;;;5.80;99.90;6.40;97690.00;;;;5045728;28;20201;-74
2021/11/19 09:18:20;;;;;;;4.50;3.13;;;5.90;99.90;6.50;97697.00;;;;5043261;28;20676;-74
2021/11/19 09:21:19;;;;;;;4.90;2.70;;;6.10;99.90;6.70;97698.00;;;;5038390;28;20224;-75
2021/11/19 09:24:13;;;;;;;3.13;2.33;;;6.30;99.90;7.00;97695.00;;;;5038390;28;20578;-70
2021/11/19 09:27:10;;;;;;;3.93;2.10;;;6.50;99.90;7.50;97702.00;;;;5038688;28;20208;-76
2021/11/19 09:30:04;;;;;;;3.87;2.67;;;6.80;99.90;7.60;97694.00;;;;5043580;28;20615;-73
2021/11/19 09:32:57;;;;;;;4.20;2.90;;;7.10;99.90;7.90;97699.00;;;;5046022;28;20224;-72
2021/11/19 09:35:47;;;;;;;5.23;2.30;;;7.40;99.90;8.10;97696.00;;;;5042714;28;20205;-72
2021/11/19 09:38:36;;;;;;;4.00;2.30;;;7.70;99.90;8.30;97697.00;;;;5039942;28;20585;-71
2021/11/19 09:41:57;;;;;;;3.70;2.67;;;7.90;99.90;8.50;97686.00;;;;5045098;28;20231;-73
2021/11/19 09:45:14;;;;;;;3.87;2.57;;;8.20;99.90;8.90;97682.00;;;;5035025;28;20668;-71
2021/11/19 09:48:46;;;;;;;3.40;1.73;;;8.50;99.90;9.00;97675.00;;;;5037010;28;20208;-71
2021/11/19 09:52:49;;;;;;;5.53;2.30;;;8.80;99.90;9.00;97669.00;;;;5046249;28;20216;-72
2021/11/19 09:56:15;;;;;;;4.87;2.37;;;8.90;99.90;9.30;97676.00;;;;5010276;28;20220;-73
2021/11/19 09:59:21;;;;;;;3.87;2.23;;;9.10;99.90;9.70;97655.00;;;;5029518;28;20729;-73
2021/11/19 10:03:00;;;;;;;5.37;2.33;;;9.30;99.90;9.70;97644.00;;;;5044834;28;20235;-71
2021/11/19 10:05:57;;;;;;;2.90;2.00;;;9.50;99.90;10.00;97656.00;;;;5028700;28;20201;-72
2021/11/19 10:08:54;;;;;;;2.83;1.87;;;9.70;99.90;10.40;97646.00;;;;5045838;28;20573;-75
2021/11/19 10:11:51;;;;;;;4.67;2.70;;;9.90;99.90;10.50;97656.00;;;;5045936;28;20221;-73
2021/11/19 10:14:50;;;;;;;10.70;2.17;;;10.30;99.90;10.90;97652.00;;;;5045616;28;20193;-74
2021/11/19 10:17:52;;;;;;;2.53;1.87;;;10.60;99.90;11.20;97652.00;;;;5046091;28;20228;-74
2021/11/19 10:20:47;;;;;;;2.53;1.77;;;10.90;99.90;11.70;97651.00;;;;5036547;28;20222;-74
2021/11/19 10:23:44;;;;;;;3.80;2.07;;;11.40;99.90;11.80;97649.00;;;;5044116;28;20217;-74
2021/11/19 10:26:37;;;;;;;3.30;2.30;;;11.70;99.90;11.90;97655.00;;;;5045363;28;20260;-73
2021/11/19 10:29:30;;;;;;;2.23;1.83;;;11.90;99.90;12.50;97646.00;;;;5044184;28;20204;-74
2021/11/19 10:32:26;;;;;;;7.37;2.40;;;12.10;99.90;12.10;97637.00;;;;5044470;28;20227;-74
2021/11/19 10:35:52;;;;;;;4.33;1.97;;;12.20;99.90;12.30;97638.00;;;;5043929;28;20203;-74
2021/11/19 10:39:33;;;;;;;2.60;2.13;;;12.40;99.90;13.40;97629.00;;;;5039193;28;20665;-74
2021/11/19 10:43:03;;;;;;;2.57;2.00;;;12.60;99.90;14.30;97634.00;;;;5045285;28;20227;-73
2021/11/19 10:46:25;;;;;;;3.37;1.73;;;13.10;99.90;14.90;97629.00;;;;5048044;28;20678;-75
2021/11/19 10:49:35;;;;;;;3.63;2.00;;;13.90;99.90;15.40;97626.00;;;;5048541;28;20212;-73
2021/11/19 10:53:01;;;;;;;3.00;1.37;;;14.50;99.90;15.90;97627.00;;;;5048466;28;20232;-74
2021/11/19 10:56:40;;;;;;;4.70;1.67;;;15.00;99.90;16.40;97626.00;;;;5036440;28;20790;-72
2021/11/19 10:59:38;;;;;;;3.70;1.67;;;15.50;99.90;16.40;97624.00;;;;5043661;28;20204;-73
2021/11/19 11:02:40;;;;;;;2.90;2.20;;;15.80;99.90;16.50;97625.00;;;;5048387;28;20231;-71
2021/11/19 11:05:34;;;;;;;5.47;1.93;;;16.00;97.40;16.80;97613.00;;;;5033000;28;20193;-71
2021/11/19 11:08:28;;;;;;;2.13;1.57;;;16.20;95.00;16.80;97614.00;;;;5046867;28;20214;-73
2021/11/19 11:11:30;;;;;;;3.23;2.30;;;16.40;93.40;17.20;97611.00;;;;5047351;28;20224;-72
2021/11/19 11:14:20;;;;;;;2.03;1.10;;;16.60;92.60;17.70;97608.00;;;;5032666;28;20204;-74
2021/11/19 11:17:30;;;;;;;1.43;1.23;;;16.80;91.70;18.00;97602.00;;;;5040354;28;20217;-74
2021/11/19 11:20:25;;;;;;;3.10;1.50;;;17.20;90.50;18.80;97599.00;;;;5041779;28;20215;-74
2021/11/19 11:23:34;;;;;;;4.80;2.03;;;17.60;90.00;19.10;97616.00;;;;5041034;28;20564;-74
2021/11/19 11:26:27;;;;;;;4.83;1.43;;;18.10;89.20;19.70;97603.00;;;;5046158;28;20671;-75
2021/11/19 11:29:41;;;;;;;2.80;1.17;;;18.50;88.40;20.00;97605.00;;;;5048913;28;20224;-74
2021/11/19 11:32:50;;;;;;;5.93;1.63;;;19.00;85.00;20.60;97586.00;;;;5049529;28;20718;-74
2021/11/19 11:35:45;;;;;;;1.73;1.10;;;19.40;80.80;21.10;97588.00;;;;5042716;28;20200;-76
2021/11/19 11:38:53;;;;;;;1.77;1.23;;;20.10;76.50;21.20;97588.00;;;;5037684;28;20242;-75
2021/11/19 11:41:59;;;;;;;2.13;1.17;;;20.60;69.50;21.70;97588.00;;;;5039201;28;20221;-75
2021/11/19 11:44:51;;;;;;;1.93;1.20;;;20.90;69.00;21.30;97575.00;;;;5048116;28;20208;-75
2021/11/19 11:47:54;;;;;;;1.40;0.80;;;21.00;65.40;21.20;97573.00;;;;5051116;28;20230;-77
2021/11/19 11:50:55;;;;;;;0.87;0.63;;;21.00;62.80;22.20;97572.00;;;;5051402;28;20880;-77
2021/11/19 11:54:06;;;;;;;2.03;0.93;;;21.30;64.90;22.40;97552.00;;;;5048400;28;20206;-75
2021/11/19 11:57:23;;;;;;;0.50;0.37;;;21.70;62.50;22.70;97569.00;;;;5049636;28;20224;-76
2021/11/19 12:00:18;;;;;;;0.60;0.60;;;22.10;60.80;22.50;97577.00;;;;5047992;28;20222;-76
2021/11/19 12:03:22;;;;;;;0.47;0.33;;;22.30;58.40;22.50;97559.00;;;;5050115;28;20214;-75
2021/11/19 12:06:17;;;;;;;0.37;0.37;;;22.30;57.50;22.20;97565.00;;;;5050064;28;20214;-75
2021/11/19 12:09:22;;;;;;;1.13;0.57;;;22.30;56.70;22.10;97581.00;;;;5039546;28;20212;-74
2021/11/19 12:12:35;;;;;;;1.40;1.07;;;22.20;57.00;21.60;97586.00;;;;5046598;28;20710;-77
2021/11/19 12:15:33;;;;;;;1.00;0.90;;;21.90;57.20;21.20;97579.00;;;;5041672;28;20203;-77
2021/11/19 12:18:34;;;;;;;1.87;1.00;;;21.60;57.70;20.00;97587.00;;;;5052181;28;20209;-77
2021/11/19 12:21:30;;;;;;;2.63;1.57;;;21.00;56.80;20.30;97592.00;;;;5046414;28;20222;-75
2021/11/19 12:24:28;;;;;;;1.23;0.80;;;20.50;57.70;20.10;97585.00;;;;5046506;28;20202;-75
2021/11/19 12:27:36;;;;;;;1.73;0.80;;;20.20;58.70;20.30;97592.00;;;;5047299;28;20251;-74
2021/11/19 12:30:32;;;;;;;2.33;1.00;;;20.10;59.70;20.30;97586.00;;;;5046887;28;20214;-74
2021/11/19 12:33:27;;;;;;;1.40;0.67;;;20.00;60.00;20.30;97592.00;;;;5035490;28;20211;-75
2021/11/19 12:36:21;;;;;;;2.33;0.97;;;20.00;60.20;20.50;97593.00;;;;5040301;28;20584;-75
2021/11/19 12:39:12;;;;;;;2.43;1.27;;;20.00;60.50;20.60;97599.00;;;;5044950;28;20200;-75
2021/11/19 12:42:07;;;;;;;2.87;0.93;;;20.00;60.80;20.60;97592.00;;;;5045447;28;20217;-73
2021/11/19 12:45:07;;;;;;;2.93;0.80;;;20.10;60.80;20.40;97610.00;;;;5045967;28;20216;-74
2021/11/19 12:48:40;;;;;;;2.47;2.00;;;20.20;59.90;20.20;97596.00;;;;5036247;28;20220;-76
2021/11/19 12:51:35;;;;;;;9.43;1.37;;;20.10;59.50;20.20;97598.00;;;;5046274;28;20247;-75
2021/11/19 12:54:49;;;;;;;3.87;1.63;;;19.90;59.90;20.10;97594.00;;;;5046534;28;20200;-74
2021/11/19 12:58:01;;;;;;;1.37;1.03;;;20.00;59.40;20.20;97589.00;;;;5036002;28;20220;-73
2021/11/19 13:01:16;;;;;;;0.73;0.73;;;19.90;60.20;20.50;97592.00;;;;5045922;28;20218;-76
2021/11/19 13:04:32;;;;;;;1.37;0.83;;;19.90;61.70;20.80;97586.00;;;;5035693;28;20205;-76
2021/11/19 13:07:42;;;;;;;1.87;1.07;;;20.10;61.60;21.20;97593.00;;;;5045384;28;20200;-76
2021/11/19 13:10:45;;;;;;;8.40;2.03;;;20.50;60.50;20.70;97602.00;;;;5040426;28;20700;-76